createdAt,value
2023-04-05T00:02:00.547Z,0.20
2023-04-05T00:04:28.907Z,0.20
2023-04-05T00:06:57.658Z,0.20
2023-04-05T00:09:24.326Z,0.20
2023-04-05T00:11:50.970Z,0.20
2023-04-05T00:14:17.545Z,0.20
2023-04-05T00:16:44.394Z,0.20
2023-04-05T00:19:13.860Z,0.20
2023-04-05T00:21:40.701Z,0.10
2023-04-05T00:24:08.240Z,0.20
2023-04-05T00:26:35.149Z,0.20
2023-04-05T00:29:01.800Z,0.10
2023-04-05T00:31:29.517Z,0.20
2023-04-05T00:33:56.216Z,0.20
2023-04-05T00:36:23.084Z,0.20
2023-04-05T00:38:49.938Z,0.10
2023-04-05T00:41:16.955Z,0.20
2023-04-05T00:43:43.760Z,0.20
2023-04-05T00:46:10.811Z,0.20
2023-04-05T00:48:38.455Z,0.17
2023-04-05T00:51:09.476Z,0.20
2023-04-05T00:53:36.372Z,0.20
2023-04-05T00:56:04.056Z,0.20
2023-04-05T00:58:30.739Z,0.20
2023-04-05T01:01:22.516Z,0.20
2023-04-05T01:04:09.065Z,0.20
2023-04-05T01:06:58.167Z,0.10
2023-04-05T01:09:44.685Z,0.20
2023-04-05T01:12:15.649Z,0.20
2023-04-05T01:14:46.264Z,0.20
2023-04-05T01:17:13.069Z,0.20
2023-04-05T01:19:42.249Z,0.17
2023-04-05T01:22:38.146Z,0.20
2023-04-05T01:25:23.241Z,0.20
2023-04-05T01:28:05.299Z,0.10
2023-04-05T01:30:40.000Z,0.20
2023-04-05T01:33:18.793Z,0.20
2023-04-05T01:36:07.821Z,0.20
2023-04-05T01:38:39.362Z,0.20
2023-04-05T01:41:06.665Z,0.20
2023-04-05T01:43:33.342Z,0.10
2023-04-05T01:46:00.011Z,0.10
2023-04-05T01:48:26.758Z,0.20
2023-04-05T01:50:53.327Z,0.20
2023-04-05T01:53:19.904Z,0.20
2023-04-05T01:55:46.486Z,0.10
2023-04-05T01:58:13.129Z,0.10
2023-04-05T02:00:39.906Z,0.20
2023-04-05T02:03:06.841Z,0.20
2023-04-05T02:05:33.530Z,0.17
2023-04-05T02:08:00.151Z,0.10
2023-04-05T02:10:29.592Z,0.10
2023-04-05T02:12:56.724Z,0.10
2023-04-05T02:15:23.369Z,0.20
2023-04-05T02:17:49.942Z,0.13
2023-04-05T02:20:18.673Z,0.20
2023-04-05T02:22:45.692Z,0.20
2023-04-05T02:25:13.314Z,0.20
2023-04-05T02:27:40.493Z,0.20
2023-04-05T02:30:07.780Z,0.10
2023-04-05T02:32:34.442Z,0.10
2023-04-05T02:35:01.579Z,0.20
2023-04-05T02:37:28.531Z,0.20
2023-04-05T02:39:55.261Z,0.20
2023-04-05T02:42:21.939Z,0.20
2023-04-05T02:44:48.844Z,0.20
2023-04-05T02:47:21.337Z,0.17
2023-04-05T02:49:49.014Z,0.20
2023-04-05T02:52:16.382Z,0.20
2023-04-05T02:54:43.904Z,0.20
2023-04-05T02:57:11.760Z,0.20
2023-04-05T02:59:39.001Z,0.20
2023-04-05T03:02:06.502Z,0.20
2023-04-05T03:04:34.597Z,0.20
2023-04-05T03:07:02.932Z,0.17
2023-04-05T03:09:33.619Z,0.20
2023-04-05T03:12:02.506Z,0.20
2023-04-05T03:14:32.234Z,0.20
2023-04-05T03:16:58.899Z,0.20
2023-04-05T03:19:26.207Z,0.10
2023-04-05T03:21:53.549Z,0.20
2023-04-05T03:24:20.741Z,0.20
2023-04-05T03:26:48.389Z,0.13
2023-04-05T03:29:15.846Z,3.23
2023-04-05T03:31:42.475Z,0.20
2023-04-05T03:34:09.205Z,0.20
2023-04-05T03:36:45.845Z,0.53
2023-04-05T03:39:13.366Z,0.20
2023-04-05T03:41:41.034Z,0.20
2023-04-05T03:44:08.717Z,0.20
2023-04-05T03:46:37.971Z,0.20
2023-04-05T03:49:04.932Z,0.10
2023-04-05T03:51:32.712Z,0.20
2023-04-05T03:53:59.363Z,0.20
2023-04-05T03:56:26.143Z,0.20
2023-04-05T03:58:53.382Z,0.10
2023-04-05T04:01:20.055Z,0.20
2023-04-05T04:03:46.681Z,0.20
2023-04-05T04:06:13.745Z,0.30
2023-04-05T04:08:40.552Z,0.10
2023-04-05T04:11:07.356Z,0.20
2023-04-05T04:13:33.976Z,0.20
2023-04-05T04:16:01.025Z,0.20
2023-04-05T04:18:27.622Z,0.20
2023-04-05T04:20:54.197Z,0.10
2023-04-05T04:23:20.794Z,0.20
2023-04-05T04:25:50.564Z,0.20
2023-04-05T04:28:19.433Z,0.23
2023-04-05T04:30:46.681Z,0.20
2023-04-05T04:33:13.594Z,0.13
2023-04-05T04:35:40.321Z,0.20
2023-04-05T04:38:08.429Z,0.10
2023-04-05T04:40:39.610Z,0.40
2023-04-05T04:43:19.626Z,0.20
2023-04-05T04:45:52.102Z,0.10
2023-04-05T04:48:18.858Z,0.20
2023-04-05T04:50:46.722Z,0.10
2023-04-05T04:53:13.778Z,0.20
2023-04-05T04:55:43.775Z,0.20
2023-04-05T04:58:12.535Z,0.20
2023-04-05T05:00:44.187Z,0.20
2023-04-05T05:03:11.666Z,0.10
2023-04-05T05:05:49.147Z,0.20
2023-04-05T05:08:16.985Z,0.10
2023-04-05T05:10:45.318Z,0.30
2023-04-05T05:13:11.905Z,0.20
2023-04-05T05:15:41.288Z,0.23
2023-04-05T05:18:09.050Z,0.53
2023-04-05T05:20:35.779Z,0.20
2023-04-05T05:23:04.039Z,0.20
2023-04-05T05:25:30.935Z,0.30
2023-04-05T05:27:57.621Z,0.20
2023-04-05T05:30:24.200Z,0.20
2023-04-05T05:32:50.791Z,0.20
2023-04-05T05:35:17.524Z,0.20
2023-04-05T05:37:44.112Z,0.10
2023-04-05T05:40:13.817Z,0.20
2023-04-05T05:42:40.464Z,0.20
2023-04-05T05:45:08.213Z,0.23
2023-04-05T05:47:34.881Z,0.20
2023-04-05T05:50:01.802Z,0.20
2023-04-05T05:52:28.484Z,0.20
2023-04-05T05:54:55.331Z,0.30
2023-04-05T05:57:22.016Z,0.20
2023-04-05T05:59:48.757Z,0.20
2023-04-05T06:02:15.519Z,0.20
2023-04-05T06:04:42.191Z,0.20
2023-04-05T06:07:08.909Z,0.20
2023-04-05T06:09:35.840Z,0.20
2023-04-05T06:12:03.043Z,0.10
2023-04-05T06:14:30.029Z,0.20
2023-04-05T06:16:56.774Z,0.13
2023-04-05T06:19:23.536Z,0.20
2023-04-05T06:21:50.380Z,0.20
2023-04-05T06:24:16.940Z,0.30
2023-04-05T06:26:43.564Z,0.20
2023-04-05T06:29:10.176Z,0.30
2023-04-05T06:31:37.796Z,0.20
2023-04-05T06:34:04.468Z,0.13
2023-04-05T06:36:34.633Z,0.30
2023-04-05T06:39:01.492Z,0.20
2023-04-05T06:41:28.246Z,0.20
2023-04-05T06:43:55.673Z,0.20
2023-04-05T06:46:22.532Z,0.20
2023-04-05T06:48:50.113Z,0.20
2023-04-05T06:51:16.913Z,0.13
2023-04-05T06:53:43.635Z,0.20
2023-04-05T06:56:10.305Z,0.20
2023-04-05T06:58:37.155Z,0.30
2023-04-05T07:01:04.216Z,0.20
2023-04-05T07:03:31.202Z,0.10
2023-04-05T07:05:59.530Z,0.20
2023-04-05T07:08:31.692Z,0.20
2023-04-05T07:10:58.651Z,0.20
2023-04-05T07:13:25.722Z,0.20
2023-04-05T07:15:53.256Z,0.20
2023-04-05T07:18:20.057Z,0.20
2023-04-05T07:20:49.114Z,0.20
2023-04-05T07:23:16.691Z,0.20
2023-04-05T07:25:43.692Z,0.20
2023-04-05T07:28:10.370Z,0.27
2023-04-05T07:30:37.208Z,0.20
2023-04-05T07:33:03.961Z,0.20
2023-04-05T07:35:30.861Z,0.20
2023-04-05T07:37:57.515Z,0.10
2023-04-05T07:40:24.085Z,0.30
2023-04-05T07:42:50.699Z,0.20
2023-04-05T07:45:17.318Z,0.20
2023-04-05T07:47:43.908Z,0.20
2023-04-05T07:50:12.143Z,0.20
2023-04-05T07:52:38.801Z,0.20
2023-04-05T07:55:06.026Z,0.20
2023-04-05T07:57:32.615Z,0.30
2023-04-05T07:59:59.185Z,0.20
2023-04-05T08:02:26.169Z,0.20
2023-04-05T08:04:52.884Z,0.20
2023-04-05T08:07:19.532Z,0.20
2023-04-05T08:09:46.111Z,0.20
2023-04-05T08:12:12.737Z,0.20
2023-04-05T08:14:39.339Z,0.20
2023-04-05T08:17:06.468Z,0.20
2023-04-05T08:19:33.041Z,0.20
2023-04-05T08:21:59.676Z,0.23
2023-04-05T08:24:26.350Z,0.10
2023-04-05T08:26:52.914Z,0.20
2023-04-05T08:29:19.462Z,0.20
2023-04-05T08:31:46.341Z,0.20
2023-04-05T08:34:12.998Z,0.20
2023-04-05T08:36:39.709Z,0.20
2023-04-05T08:39:06.353Z,0.20
2023-04-05T08:41:37.491Z,0.20
2023-04-05T08:44:05.699Z,0.30
2023-04-05T08:46:34.123Z,0.20
2023-04-05T08:49:05.091Z,0.30
2023-04-05T08:51:31.783Z,0.20
2023-04-05T08:53:59.731Z,0.20
2023-04-05T08:56:28.261Z,0.27
2023-04-05T08:59:06.395Z,0.20
2023-04-05T09:01:35.569Z,0.20
2023-04-05T09:04:06.345Z,0.20
2023-04-05T09:06:33.972Z,0.20
2023-04-05T09:09:00.668Z,0.20
2023-04-05T09:11:27.790Z,0.20
2023-04-05T09:13:54.494Z,0.20
2023-04-05T09:16:21.802Z,0.20
2023-04-05T09:18:49.363Z,0.20
2023-04-05T09:21:17.657Z,0.20
2023-04-05T09:23:56.763Z,0.30
2023-04-05T09:26:25.376Z,0.20
2023-04-05T09:28:52.353Z,0.20
2023-04-05T09:31:37.484Z,0.23
2023-04-05T09:34:05.034Z,0.20
2023-04-05T09:36:35.242Z,0.20
2023-04-05T09:39:06.829Z,0.20
2023-04-05T09:41:34.769Z,0.20
2023-04-05T09:44:01.779Z,0.20
2023-04-05T09:46:35.572Z,0.20
2023-04-05T09:49:03.862Z,0.20
2023-04-05T09:51:38.080Z,0.20
2023-04-05T09:54:06.659Z,0.20
2023-04-05T09:56:38.827Z,0.20
2023-04-05T09:59:11.429Z,4.50
2023-04-05T10:01:43.779Z,0.20
2023-04-05T10:04:10.606Z,0.20
2023-04-05T10:06:42.449Z,0.30
2023-04-05T10:09:11.154Z,0.20
2023-04-05T10:11:38.906Z,0.30
2023-04-05T10:14:08.986Z,0.20
2023-04-05T10:16:46.651Z,0.30
2023-04-05T10:19:32.301Z,0.20
2023-04-05T10:22:01.739Z,0.20
2023-04-05T10:24:43.926Z,0.30
2023-04-05T10:27:29.530Z,0.20
2023-04-05T10:30:08.724Z,0.13
2023-04-05T10:33:03.024Z,0.20
2023-04-05T10:35:49.957Z,8.03
2023-04-05T10:38:26.857Z,4.97
2023-04-05T10:41:16.536Z,4.53
2023-04-05T10:43:44.372Z,4.37
2023-04-05T10:46:11.685Z,3.40
2023-04-05T10:48:47.995Z,3.70
2023-04-05T10:51:15.450Z,6.23
2023-04-05T10:53:42.381Z,5.67
2023-04-05T10:56:09.340Z,4.13
2023-04-05T10:58:36.561Z,4.17
2023-04-05T11:01:04.529Z,3.93
2023-04-05T11:03:47.577Z,3.13
2023-04-05T11:06:21.288Z,4.60
2023-04-05T11:08:49.109Z,4.47
2023-04-05T11:11:18.913Z,5.80
2023-04-05T11:13:56.174Z,4.13
2023-04-05T11:16:24.847Z,4.13
2023-04-05T11:18:52.559Z,5.07
2023-04-05T11:21:26.269Z,4.43
2023-04-05T11:24:11.817Z,4.30
2023-04-05T11:26:44.384Z,4.20
2023-04-05T11:29:11.442Z,6.67
2023-04-05T11:32:00.627Z,5.97
2023-04-05T11:34:27.264Z,3.90
2023-04-05T11:36:53.918Z,4.57
2023-04-05T11:39:23.526Z,5.17
2023-04-05T11:42:03.208Z,6.60
2023-04-05T11:44:45.163Z,5.67
2023-04-05T11:47:12.336Z,5.17
2023-04-05T11:49:40.166Z,7.03
2023-04-05T11:52:17.484Z,7.30
2023-04-05T11:54:47.605Z,6.37
2023-04-05T11:57:24.577Z,6.37
2023-04-05T11:59:52.502Z,10.43
2023-04-05T12:02:19.432Z,7.33
2023-04-05T12:04:53.797Z,8.10
2023-04-05T12:07:20.533Z,5.37
2023-04-05T12:10:03.432Z,5.90
2023-04-05T12:12:38.400Z,6.47
2023-04-05T12:15:08.557Z,4.40
2023-04-05T12:17:52.636Z,3.90
2023-04-05T12:20:26.604Z,3.97
2023-04-05T12:22:54.627Z,4.97
2023-04-05T12:25:21.301Z,4.97
2023-04-05T12:27:48.448Z,2.93
2023-04-05T12:30:19.259Z,3.63
2023-04-05T12:32:56.462Z,7.63
2023-04-05T12:35:24.998Z,3.50
2023-04-05T12:37:52.208Z,3.43
2023-04-05T12:40:23.142Z,3.93
2023-04-05T12:42:50.477Z,2.97
2023-04-05T12:45:18.601Z,4.43
2023-04-05T12:48:00.745Z,3.87
2023-04-05T12:50:29.115Z,4.60
2023-04-05T12:53:00.459Z,3.87
2023-04-05T12:55:29.092Z,3.67
2023-04-05T12:58:00.510Z,3.37
2023-04-05T13:00:29.576Z,5.07
2023-04-05T13:02:58.195Z,5.07
2023-04-05T13:05:29.651Z,4.37
2023-04-05T13:07:56.670Z,4.10
2023-04-05T13:10:24.839Z,5.97
2023-04-05T13:12:51.513Z,4.87
2023-04-05T13:15:18.834Z,4.90
2023-04-05T13:17:45.841Z,4.33
2023-04-05T13:20:12.699Z,4.03
2023-04-05T13:22:39.427Z,5.50
2023-04-05T13:25:06.616Z,4.67
2023-04-05T13:27:33.288Z,2.80
2023-04-05T13:30:00.173Z,2.93
2023-04-05T13:32:27.389Z,3.60
2023-04-05T13:34:54.070Z,6.73
2023-04-05T13:37:20.814Z,5.07
2023-04-05T13:39:47.420Z,3.70
2023-04-05T13:42:13.968Z,4.80
2023-04-05T13:44:40.596Z,3.47
2023-04-05T13:47:07.230Z,4.23
2023-04-05T13:49:34.025Z,6.77
2023-04-05T13:52:00.715Z,9.03
2023-04-05T13:54:27.404Z,8.13
2023-04-05T13:56:54.057Z,4.90
2023-04-05T13:59:21.029Z,3.57
2023-04-05T14:01:47.816Z,6.03
2023-04-05T14:04:15.615Z,7.23
2023-04-05T14:06:42.634Z,7.50
2023-04-05T14:09:09.697Z,10.30
2023-04-05T14:11:36.807Z,5.80
2023-04-05T14:14:03.555Z,8.37
2023-04-05T14:16:30.403Z,8.03
2023-04-05T14:18:57.148Z,6.37
2023-04-05T14:21:27.448Z,5.27
2023-04-05T14:23:57.089Z,5.27
2023-04-05T14:26:27.869Z,5.80
2023-04-05T14:28:54.694Z,13.90
2023-04-05T14:31:21.418Z,5.80
2023-04-05T14:33:48.075Z,5.90
2023-04-05T14:36:14.763Z,8.87
2023-04-05T14:38:41.423Z,6.27
2023-04-05T14:41:08.582Z,7.47
2023-04-05T14:43:35.670Z,6.33
2023-04-05T14:46:02.418Z,5.90
2023-04-05T14:48:30.386Z,6.27
2023-04-05T14:50:57.100Z,6.67
2023-04-05T14:53:23.786Z,11.70
2023-04-05T14:55:50.461Z,8.20
2023-04-05T14:58:17.115Z,8.20
2023-04-05T15:00:44.636Z,14.73
2023-04-05T15:03:11.458Z,14.13
2023-04-05T15:05:38.155Z,7.70
2023-04-05T15:08:04.904Z,14.90
2023-04-05T15:10:31.853Z,12.83
2023-04-05T15:12:58.489Z,12.77
2023-04-05T15:15:25.373Z,6.73
2023-04-05T15:17:52.038Z,5.90
2023-04-05T15:20:18.738Z,5.53
2023-04-05T15:22:45.431Z,5.50
2023-04-05T15:25:12.265Z,8.30
2023-04-05T15:27:38.949Z,10.30
2023-04-05T15:30:06.599Z,7.40
2023-04-05T15:32:34.026Z,11.60
2023-04-05T15:35:01.507Z,9.00
2023-04-05T15:37:28.229Z,13.63
2023-04-05T15:39:54.886Z,11.73
2023-04-05T15:42:24.346Z,15.10
2023-04-05T15:44:51.264Z,7.43
2023-04-05T15:47:18.472Z,7.47
2023-04-05T15:49:45.173Z,6.23
2023-04-05T15:52:11.894Z,8.40
2023-04-05T15:54:38.648Z,5.83
2023-04-05T15:57:05.409Z,7.13
2023-04-05T15:59:32.474Z,8.37
2023-04-05T16:01:59.279Z,11.23
2023-04-05T16:04:30.855Z,10.80
2023-04-05T16:06:57.558Z,8.37
2023-04-05T16:09:24.191Z,7.07
2023-04-05T16:11:51.071Z,8.67
2023-04-05T16:14:17.729Z,9.53
2023-04-05T16:16:53.215Z,12.60
2023-04-05T16:19:21.353Z,13.67
2023-04-05T16:21:48.062Z,9.80
2023-04-05T16:24:14.733Z,11.17
2023-04-05T16:26:41.441Z,12.33
2023-04-05T16:29:08.087Z,10.17
2023-04-05T16:31:36.330Z,10.30
2023-04-05T16:34:03.539Z,10.63
2023-04-05T16:36:30.315Z,9.73
2023-04-05T16:38:56.953Z,10.70
2023-04-05T16:41:23.687Z,9.07
2023-04-05T16:43:51.682Z,9.67
2023-04-05T16:46:18.596Z,9.90
2023-04-05T16:48:45.691Z,18.57
2023-04-05T16:51:13.129Z,11.83
2023-04-05T16:53:39.906Z,18.77
2023-04-05T16:56:06.614Z,79.23
2023-04-05T16:58:33.291Z,205.10
2023-04-05T17:01:00.488Z,53.37
2023-04-05T17:03:27.440Z,14.60
2023-04-05T17:05:54.260Z,42.80
2023-04-05T17:08:21.097Z,16.97
2023-04-05T17:10:47.780Z,29.23
2023-04-05T17:13:18.124Z,20.93
2023-04-05T17:15:44.998Z,13.37
2023-04-05T17:18:12.359Z,15.20
2023-04-05T17:20:39.212Z,15.37
2023-04-05T17:23:06.001Z,16.47
2023-04-05T17:25:32.729Z,18.53
2023-04-05T17:27:59.439Z,19.33
2023-04-05T17:30:26.384Z,16.27
2023-04-05T17:32:53.458Z,12.63
2023-04-05T17:35:20.596Z,16.67
2023-04-05T17:37:47.792Z,15.73
2023-04-05T17:40:15.440Z,15.83
2023-04-05T17:42:42.311Z,15.67
2023-04-05T17:45:09.242Z,17.57
2023-04-05T17:47:36.294Z,12.47
2023-04-05T17:50:03.054Z,14.73
2023-04-05T17:52:29.711Z,13.40
2023-04-05T17:54:56.428Z,12.47
2023-04-05T17:57:23.138Z,13.77
2023-04-05T17:59:49.775Z,14.37
2023-04-05T18:02:16.546Z,12.67
2023-04-05T18:04:43.412Z,13.40
2023-04-05T18:07:10.336Z,14.27
2023-04-05T18:09:38.817Z,17.33
2023-04-05T18:12:05.682Z,14.00
2023-04-05T18:14:32.381Z,22.60
2023-04-05T18:16:59.499Z,13.00
2023-04-05T18:19:26.127Z,15.17
2023-04-05T18:21:52.793Z,16.43
2023-04-05T18:24:19.758Z,12.20
2023-04-05T18:26:46.826Z,11.33
2023-04-05T18:29:13.466Z,12.07
2023-04-05T18:31:40.231Z,12.57
2023-04-05T18:34:06.935Z,10.43
2023-04-05T18:36:33.578Z,11.97
2023-04-05T18:39:03.521Z,12.80
2023-04-05T18:41:30.370Z,9.97
2023-04-05T18:43:59.155Z,8.43
2023-04-05T18:46:26.237Z,13.97
2023-04-05T18:48:54.853Z,10.90
2023-04-05T18:51:22.810Z,8.13
2023-04-05T18:53:49.885Z,10.67
2023-04-05T18:56:16.781Z,9.63
2023-04-05T18:58:44.630Z,10.50
2023-04-05T19:01:14.441Z,10.47
2023-04-05T19:03:41.500Z,11.30
2023-04-05T19:06:08.241Z,10.63
2023-04-05T19:08:34.890Z,12.27
2023-04-05T19:11:01.568Z,9.83
2023-04-05T19:13:28.225Z,14.30
2023-04-05T19:15:54.960Z,11.93
2023-04-05T19:18:25.688Z,10.57
2023-04-05T19:20:57.388Z,11.87
2023-04-05T19:23:28.102Z,10.87
2023-04-05T19:25:55.378Z,10.70
2023-04-05T19:28:22.055Z,11.77
2023-04-05T19:30:48.683Z,10.77
2023-04-05T19:33:15.516Z,13.40
2023-04-05T19:35:42.499Z,11.43
2023-04-05T19:38:10.653Z,10.77
2023-04-05T19:40:37.859Z,12.10
2023-04-05T19:43:04.668Z,10.53
2023-04-05T19:45:32.374Z,12.23
2023-04-05T19:48:01.212Z,10.53
2023-04-05T19:50:50.840Z,9.50
2023-04-05T19:53:40.571Z,11.03
2023-04-05T19:56:20.340Z,10.93
2023-04-05T19:58:48.229Z,12.73
2023-04-05T20:01:47.286Z,11.30
2023-04-05T20:04:19.625Z,13.97
2023-04-05T20:06:52.981Z,10.13
2023-04-05T20:09:28.905Z,11.13
2023-04-05T20:12:00.229Z,10.23
2023-04-05T20:14:31.540Z,10.07
2023-04-05T20:16:58.648Z,12.30
2023-04-05T20:19:29.812Z,11.17
2023-04-05T20:22:07.483Z,12.00
2023-04-05T20:24:34.828Z,12.73
2023-04-05T20:27:03.138Z,11.83
2023-04-05T20:29:33.720Z,10.73
2023-04-05T20:32:01.203Z,9.90
2023-04-05T20:34:32.591Z,15.73
2023-04-05T20:37:17.205Z,12.83
2023-04-05T20:39:43.881Z,9.67
2023-04-05T20:42:11.539Z,9.63
2023-04-05T20:44:38.245Z,7.10
2023-04-05T20:47:04.915Z,17.20
2023-04-05T20:49:31.613Z,10.37
2023-04-05T20:51:58.307Z,9.00
2023-04-05T20:54:25.086Z,8.20
2023-04-05T20:56:51.823Z,9.73
2023-04-05T20:59:18.487Z,8.90
2023-04-05T21:01:47.405Z,12.23
2023-04-05T21:04:14.549Z,8.33
2023-04-05T21:06:41.415Z,8.50
2023-04-05T21:09:08.380Z,12.80
2023-04-05T21:11:35.421Z,8.03
2023-04-05T21:14:02.123Z,7.70
2023-04-05T21:16:28.866Z,8.77
2023-04-05T21:18:55.557Z,7.63
2023-04-05T21:21:22.154Z,7.80
2023-04-05T21:23:49.181Z,6.60
2023-04-05T21:26:15.882Z,6.77
2023-04-05T21:28:42.549Z,8.63
2023-04-05T21:31:09.298Z,7.10
2023-04-05T21:33:36.233Z,7.00
2023-04-05T21:36:02.929Z,6.13
2023-04-05T21:38:29.531Z,8.87
2023-04-05T21:40:56.162Z,7.00
2023-04-05T21:43:23.134Z,7.77
2023-04-05T21:45:49.820Z,7.23
2023-04-05T21:48:16.552Z,6.60
2023-04-05T21:50:43.159Z,6.73
2023-04-05T21:53:09.991Z,5.67
2023-04-05T21:55:36.834Z,6.97
2023-04-05T21:58:03.559Z,6.40
2023-04-05T22:00:30.242Z,6.13
2023-04-05T22:02:56.970Z,5.97
2023-04-05T22:05:36.503Z,5.63
2023-04-05T22:08:05.950Z,6.43
2023-04-05T22:10:32.975Z,5.93
2023-04-05T22:12:59.572Z,5.40
2023-04-05T22:15:26.215Z,6.23
2023-04-05T22:17:53.185Z,6.57
2023-04-05T22:20:19.876Z,5.70
2023-04-05T22:22:46.564Z,5.53
2023-04-05T22:25:13.335Z,5.47
2023-04-05T22:27:40.328Z,5.87
2023-04-05T22:30:09.203Z,5.87
2023-04-05T22:32:36.289Z,6.53
2023-04-05T22:35:04.609Z,5.97
2023-04-05T22:37:35.781Z,5.80
2023-04-05T22:40:04.479Z,5.47
2023-04-05T22:42:31.186Z,5.47
2023-04-05T22:44:57.852Z,6.60
2023-04-05T22:47:24.677Z,6.23
2023-04-05T22:49:51.982Z,7.23
2023-04-05T22:52:18.690Z,8.20
2023-04-05T22:54:45.480Z,5.93
2023-04-05T22:57:12.838Z,6.60
2023-04-05T22:59:39.567Z,6.20
2023-04-05T23:02:06.462Z,6.87
2023-04-05T23:04:33.156Z,7.03
2023-04-05T23:06:59.761Z,6.50
2023-04-05T23:09:27.302Z,6.57
2023-04-05T23:11:53.905Z,7.43
2023-04-05T23:14:20.567Z,7.17
2023-04-05T23:16:47.191Z,8.30
2023-04-05T23:19:13.799Z,6.83
2023-04-05T23:21:40.472Z,6.63
2023-04-05T23:24:07.439Z,6.70
2023-04-05T23:26:34.491Z,7.40
2023-04-05T23:29:01.228Z,6.23
2023-04-05T23:31:27.960Z,6.60
2023-04-05T23:33:55.806Z,8.47
2023-04-05T23:36:22.408Z,7.70
2023-04-05T23:38:49.001Z,9.07
2023-04-05T23:41:15.672Z,9.17
2023-04-05T23:43:42.334Z,7.03
2023-04-05T23:46:09.013Z,6.93
2023-04-05T23:48:35.886Z,7.83
2023-04-05T23:51:02.545Z,7.23
2023-04-05T23:53:29.134Z,9.20
2023-04-05T23:55:56.909Z,6.97
2023-04-05T23:58:23.807Z,7.07
